sensor_id;sensor_type;location;lat;lon;timestamp;pressure;altitude;pressure_sealevel;temperature;humidity
75945;BME280;64628;50.104;14.614;2024-03-02T00:00:07;97663.06;;;12.93;44.61
75945;BME280;64628;50.104;14.614;2024-03-02T00:02:30;97664.13;;;12.94;44.63
75945;BME280;64628;50.104;14.614;2024-03-02T00:04:56;97667.07;;;13.08;44.74
75945;BME280;64628;50.104;14.614;2024-03-02T00:07:21;97668.19;;;12.81;44.82
75945;BME280;64628;50.104;14.614;2024-03-02T00:09:47;97667.71;;;12.82;44.77
75945;BME280;64628;50.104;14.614;2024-03-02T00:12:15;97663.09;;;13.08;44.66
75945;BME280;64628;50.104;14.614;2024-03-02T00:14:38;97662.26;;;13.06;44.63
75945;BME280;64628;50.104;14.614;2024-03-02T00:17:04;97660.13;;;12.78;44.65
75945;BME280;64628;50.104;14.614;2024-03-02T00:19:29;97656.58;;;13.25;44.55
75945;BME280;64628;50.104;14.614;2024-03-02T00:21:54;97649.37;;;12.98;44.60
75945;BME280;64628;50.104;14.614;2024-03-02T00:24:21;97652.73;;;13.13;44.71
75945;BME280;64628;50.104;14.614;2024-03-02T00:26:45;97655.48;;;13.07;44.88
75945;BME280;64628;50.104;14.614;2024-03-02T00:29:11;97655.35;;;12.65;45.19
75945;BME280;64628;50.104;14.614;2024-03-02T00:31:36;97654.26;;;12.65;45.27
75945;BME280;64628;50.104;14.614;2024-03-02T00:34:05;97658.88;;;12.75;45.05
75945;BME280;64628;50.104;14.614;2024-03-02T00:36:27;97661.08;;;12.54;45.42
75945;BME280;64628;50.104;14.614;2024-03-02T00:38:54;97661.55;;;12.58;45.38
75945;BME280;64628;50.104;14.614;2024-03-02T00:41:21;97663.43;;;12.73;45.60
75945;BME280;64628;50.104;14.614;2024-03-02T00:43:45;97666.35;;;12.45;46.01
75945;BME280;64628;50.104;14.614;2024-03-02T00:46:09;97668.48;;;12.59;46.15
75945;BME280;64628;50.104;14.614;2024-03-02T00:48:34;97670.19;;;12.42;46.38
75945;BME280;64628;50.104;14.614;2024-03-02T00:50:59;97666.49;;;12.53;46.20
75945;BME280;64628;50.104;14.614;2024-03-02T00:53:26;97668.59;;;12.39;46.21
75945;BME280;64628;50.104;14.614;2024-03-02T00:55:50;97668.48;;;12.22;46.16
75945;BME280;64628;50.104;14.614;2024-03-02T00:58:15;97667.89;;;12.34;45.87
75945;BME280;64628;50.104;14.614;2024-03-02T01:00:41;97672.80;;;12.29;45.90
75945;BME280;64628;50.104;14.614;2024-03-02T01:03:06;97674.46;;;12.76;45.95
75945;BME280;64628;50.104;14.614;2024-03-02T01:05:32;97675.59;;;12.49;45.68
75945;BME280;64628;50.104;14.614;2024-03-02T01:07:57;97675.71;;;12.52;45.55
75945;BME280;64628;50.104;14.614;2024-03-02T01:10:23;97676.50;;;12.48;45.54
75945;BME280;64628;50.104;14.614;2024-03-02T01:12:49;97673.56;;;12.65;45.57
75945;BME280;64628;50.104;14.614;2024-03-02T01:15:14;97669.31;;;12.49;45.43
75945;BME280;64628;50.104;14.614;2024-03-02T01:17:39;97669.79;;;12.38;45.19
75945;BME280;64628;50.104;14.614;2024-03-02T01:20:08;97670.82;;;12.53;45.15
75945;BME280;64628;50.104;14.614;2024-03-02T01:22:29;97670.82;;;12.58;44.96
75945;BME280;64628;50.104;14.614;2024-03-02T01:24:55;97667.91;;;11.93;45.56
75945;BME280;64628;50.104;14.614;2024-03-02T01:27:20;97666.38;;;12.49;45.15
75945;BME280;64628;50.104;14.614;2024-03-02T01:29:45;97668.17;;;12.62;45.35
75945;BME280;64628;50.104;14.614;2024-03-02T01:32:10;97671.14;;;12.47;45.05
75945;BME280;64628;50.104;14.614;2024-03-02T01:34:36;97669.31;;;12.67;45.22
75945;BME280;64628;50.104;14.614;2024-03-02T01:37:02;97668.95;;;12.66;44.91
75945;BME280;64628;50.104;14.614;2024-03-02T01:39:27;97667.77;;;12.57;44.94
75945;BME280;64628;50.104;14.614;2024-03-02T01:41:52;97667.36;;;12.52;44.97
75945;BME280;64628;50.104;14.614;2024-03-02T01:44:18;97664.74;;;12.72;44.92
75945;BME280;64628;50.104;14.614;2024-03-02T01:46:44;97664.94;;;12.71;45.00
75945;BME280;64628;50.104;14.614;2024-03-02T01:49:09;97664.33;;;12.53;44.85
75945;BME280;64628;50.104;14.614;2024-03-02T01:51:34;97667.24;;;12.22;45.32
75945;BME280;64628;50.104;14.614;2024-03-02T01:53:59;97668.84;;;12.31;45.67
75945;BME280;64628;50.104;14.614;2024-03-02T01:56:25;97667.00;;;12.21;45.71
75945;BME280;64628;50.104;14.614;2024-03-02T01:58:51;97665.27;;;11.97;46.07
75945;BME280;64628;50.104;14.614;2024-03-02T02:01:16;97665.70;;;11.94;45.64
75945;BME280;64628;50.104;14.614;2024-03-02T02:03:41;97666.57;;;12.25;45.51
75945;BME280;64628;50.104;14.614;2024-03-02T02:06:08;97664.91;;;12.18;44.98
75945;BME280;64628;50.104;14.614;2024-03-02T02:08:33;97658.83;;;12.38;45.35
75945;BME280;64628;50.104;14.614;2024-03-02T02:10:59;97658.01;;;12.16;44.88
75945;BME280;64628;50.104;14.614;2024-03-02T02:13:23;97655.28;;;11.87;45.60
75945;BME280;64628;50.104;14.614;2024-03-02T02:15:48;97651.89;;;11.95;45.61
75945;BME280;64628;50.104;14.614;2024-03-02T02:18:14;97652.07;;;11.72;45.58
75945;BME280;64628;50.104;14.614;2024-03-02T02:20:39;97647.83;;;11.47;45.62
75945;BME280;64628;50.104;14.614;2024-03-02T02:23:04;97655.37;;;11.37;45.83
75945;BME280;64628;50.104;14.614;2024-03-02T02:25:30;97645.73;;;11.72;45.22
75945;BME280;64628;50.104;14.614;2024-03-02T02:27:55;97646.74;;;11.59;44.64
75945;BME280;64628;50.104;14.614;2024-03-02T02:30:21;97651.10;;;12.15;43.81
75945;BME280;64628;50.104;14.614;2024-03-02T02:32:45;97648.80;;;11.87;43.91
75945;BME280;64628;50.104;14.614;2024-03-02T02:35:10;97643.38;;;11.57;43.83
75945;BME280;64628;50.104;14.614;2024-03-02T02:37:35;97645.90;;;12.10;43.62
75945;BME280;64628;50.104;14.614;2024-03-02T02:40:01;97650.19;;;12.29;43.28
75945;BME280;64628;50.104;14.614;2024-03-02T02:42:26;97649.19;;;12.26;43.01
75945;BME280;64628;50.104;14.614;2024-03-02T02:44:51;97653.88;;;12.09;43.26
75945;BME280;64628;50.104;14.614;2024-03-02T02:47:17;97653.71;;;11.74;43.39
75945;BME280;64628;50.104;14.614;2024-03-02T02:49:41;97656.66;;;11.80;43.22
75945;BME280;64628;50.104;14.614;2024-03-02T02:52:07;97654.47;;;12.12;43.37
75945;BME280;64628;50.104;14.614;2024-03-02T02:54:32;97653.65;;;12.01;43.19
75945;BME280;64628;50.104;14.614;2024-03-02T02:56:57;97656.43;;;11.76;43.52
75945;BME280;64628;50.104;14.614;2024-03-02T02:59:22;97658.28;;;11.73;43.45
75945;BME280;64628;50.104;14.614;2024-03-02T03:01:48;97660.93;;;11.73;43.87
75945;BME280;64628;50.104;14.614;2024-03-02T03:04:13;97658.21;;;11.46;43.50
75945;BME280;64628;50.104;14.614;2024-03-02T03:06:38;97659.27;;;11.70;43.61
75945;BME280;64628;50.104;14.614;2024-03-02T03:09:04;97654.54;;;11.72;43.56
75945;BME280;64628;50.104;14.614;2024-03-02T03:11:30;97657.53;;;11.21;43.62
75945;BME280;64628;50.104;14.614;2024-03-02T03:13:55;97658.33;;;11.61;43.55
75945;BME280;64628;50.104;14.614;2024-03-02T03:16:21;97659.37;;;10.45;45.12
75945;BME280;64628;50.104;14.614;2024-03-02T03:18:47;97662.14;;;10.60;44.88
75945;BME280;64628;50.104;14.614;2024-03-02T03:21:12;97666.37;;;10.64;45.19
75945;BME280;64628;50.104;14.614;2024-03-02T03:23:37;97665.73;;;10.59;44.96
75945;BME280;64628;50.104;14.614;2024-03-02T03:26:03;97667.29;;;10.71;45.13
75945;BME280;64628;50.104;14.614;2024-03-02T03:28:29;97665.39;;;11.29;44.62
75945;BME280;64628;50.104;14.614;2024-03-02T03:30:54;97668.14;;;10.43;44.95
75945;BME280;64628;50.104;14.614;2024-03-02T03:33:19;97664.88;;;10.76;45.37
75945;BME280;64628;50.104;14.614;2024-03-02T03:35:45;97666.62;;;10.85;44.65
75945;BME280;64628;50.104;14.614;2024-03-02T03:38:11;97672.81;;;11.02;44.14
75945;BME280;64628;50.104;14.614;2024-03-02T03:40:36;97669.92;;;11.02;44.13
75945;BME280;64628;50.104;14.614;2024-03-02T03:43:01;97667.07;;;11.30;43.57
75945;BME280;64628;50.104;14.614;2024-03-02T03:45:27;97669.57;;;11.45;43.19
75945;BME280;64628;50.104;14.614;2024-03-02T03:47:53;97667.93;;;11.16;43.65
75945;BME280;64628;50.104;14.614;2024-03-02T03:50:18;97668.86;;;11.26;43.45
75945;BME280;64628;50.104;14.614;2024-03-02T03:52:42;97676.50;;;11.11;43.56
75945;BME280;64628;50.104;14.614;2024-03-02T03:55:08;97679.87;;;10.78;44.05
75945;BME280;64628;50.104;14.614;2024-03-02T03:57:34;97679.67;;;10.50;44.58
75945;BME280;64628;50.104;14.614;2024-03-02T03:59:59;97681.01;;;11.02;43.97
75945;BME280;64628;50.104;14.614;2024-03-02T04:02:25;97675.23;;;11.18;43.72
75945;BME280;64628;50.104;14.614;2024-03-02T04:04:50;97677.19;;;11.22;43.45
75945;BME280;64628;50.104;14.614;2024-03-02T04:07:15;97672.42;;;11.38;43.33
75945;BME280;64628;50.104;14.614;2024-03-02T04:09:40;97679.25;;;11.39;43.17
75945;BME280;64628;50.104;14.614;2024-03-02T04:12:06;97687.25;;;10.90;43.96
75945;BME280;64628;50.104;14.614;2024-03-02T04:14:31;97689.59;;;10.85;44.13
75945;BME280;64628;50.104;14.614;2024-03-02T04:16:57;97693.56;;;11.39;43.32
75945;BME280;64628;50.104;14.614;2024-03-02T04:19:22;97696.85;;;11.31;43.46
75945;BME280;64628;50.104;14.614;2024-03-02T04:21:48;97696.25;;;11.41;43.33
75945;BME280;64628;50.104;14.614;2024-03-02T04:24:13;97701.94;;;11.45;43.20
75945;BME280;64628;50.104;14.614;2024-03-02T04:26:38;97704.21;;;11.49;43.09
75945;BME280;64628;50.104;14.614;2024-03-02T04:29:04;97701.36;;;11.43;42.82
75945;BME280;64628;50.104;14.614;2024-03-02T04:31:29;97702.54;;;11.94;42.46
75945;BME280;64628;50.104;14.614;2024-03-02T04:33:54;97703.75;;;11.75;42.22
75945;BME280;64628;50.104;14.614;2024-03-02T04:36:20;97711.13;;;11.55;42.83
75945;BME280;64628;50.104;14.614;2024-03-02T04:38:45;97712.02;;;11.56;42.58
75945;BME280;64628;50.104;14.614;2024-03-02T04:41:11;97713.56;;;11.68;42.45
75945;BME280;64628;50.104;14.614;2024-03-02T04:43:36;97711.90;;;11.81;42.15
75945;BME280;64628;50.104;14.614;2024-03-02T04:46:02;97714.08;;;11.83;42.17
75945;BME280;64628;50.104;14.614;2024-03-02T04:48:27;97719.56;;;12.03;42.08
75945;BME280;64628;50.104;14.614;2024-03-02T04:50:53;97726.44;;;11.86;41.98
75945;BME280;64628;50.104;14.614;2024-03-02T04:53:19;97729.21;;;11.86;42.33
75945;BME280;64628;50.104;14.614;2024-03-02T04:55:44;97728.36;;;11.45;42.37
75945;BME280;64628;50.104;14.614;2024-03-02T04:58:10;97727.67;;;11.69;42.22
75945;BME280;64628;50.104;14.614;2024-03-02T05:00:36;97726.51;;;11.82;41.94
75945;BME280;64628;50.104;14.614;2024-03-02T05:03:01;97729.60;;;11.19;42.43
75945;BME280;64628;50.104;14.614;2024-03-02T05:05:26;97724.74;;;11.52;41.89
75945;BME280;64628;50.104;14.614;2024-03-02T05:07:52;97728.21;;;11.55;41.60
75945;BME280;64628;50.104;14.614;2024-03-02T05:10:17;97728.93;;;11.65;41.73
75945;BME280;64628;50.104;14.614;2024-03-02T05:12:42;97732.70;;;11.41;42.02
75945;BME280;64628;50.104;14.614;2024-03-02T05:15:07;97736.13;;;11.58;41.32
75945;BME280;64628;50.104;14.614;2024-03-02T05:17:32;97740.19;;;11.62;41.44
75945;BME280;64628;50.104;14.614;2024-03-02T05:19:58;97745.23;;;11.24;41.65
75945;BME280;64628;50.104;14.614;2024-03-02T05:22:23;97747.67;;;11.66;41.33
75945;BME280;64628;50.104;14.614;2024-03-02T05:24:49;97752.55;;;11.84;41.05
75945;BME280;64628;50.104;14.614;2024-03-02T05:27:15;97762.02;;;11.67;41.29
75945;BME280;64628;50.104;14.614;2024-03-02T05:29:40;97764.66;;;11.56;40.93
75945;BME280;64628;50.104;14.614;2024-03-02T05:32:06;97765.48;;;11.62;40.85
75945;BME280;64628;50.104;14.614;2024-03-02T05:34:31;97761.23;;;11.72;40.67
75945;BME280;64628;50.104;14.614;2024-03-02T05:36:56;97757.78;;;11.84;40.58
75945;BME280;64628;50.104;14.614;2024-03-02T05:39:21;97757.02;;;12.21;40.38
75945;BME280;64628;50.104;14.614;2024-03-02T05:41:47;97759.38;;;12.07;40.30
75945;BME280;64628;50.104;14.614;2024-03-02T05:44:12;97757.80;;;12.08;40.21
75945;BME280;64628;50.104;14.614;2024-03-02T05:46:38;97761.86;;;12.07;40.21
75945;BME280;64628;50.104;14.614;2024-03-02T05:49:04;97769.25;;;12.04;40.19
75945;BME280;64628;50.104;14.614;2024-03-02T05:51:28;97771.95;;;11.87;40.58
75945;BME280;64628;50.104;14.614;2024-03-02T05:53:54;97774.17;;;11.67;40.83
75945;BME280;64628;50.104;14.614;2024-03-02T05:56:20;97773.61;;;11.87;40.56
75945;BME280;64628;50.104;14.614;2024-03-02T05:58:45;97773.34;;;11.67;40.56
75945;BME280;64628;50.104;14.614;2024-03-02T06:01:10;97779.35;;;12.34;40.33
75945;BME280;64628;50.104;14.614;2024-03-02T06:03:36;97781.75;;;12.19;40.24
75945;BME280;64628;50.104;14.614;2024-03-02T06:06:02;97782.78;;;12.02;39.90
75945;BME280;64628;50.104;14.614;2024-03-02T06:08:27;97783.36;;;12.24;39.94
75945;BME280;64628;50.104;14.614;2024-03-02T06:10:53;97783.26;;;11.99;39.83
75945;BME280;64628;50.104;14.614;2024-03-02T06:13:18;97783.96;;;11.99;40.04
75945;BME280;64628;50.104;14.614;2024-03-02T06:15:44;97789.32;;;12.23;40.15
75945;BME280;64628;50.104;14.614;2024-03-02T06:18:09;97788.58;;;11.87;40.29
75945;BME280;64628;50.104;14.614;2024-03-02T06:20:35;97786.87;;;11.87;40.27
75945;BME280;64628;50.104;14.614;2024-03-02T06:23:00;97788.34;;;12.20;40.24
75945;BME280;64628;50.104;14.614;2024-03-02T06:25:25;97789.42;;;11.88;40.18
75945;BME280;64628;50.104;14.614;2024-03-02T06:27:51;97790.89;;;12.26;39.94
75945;BME280;64628;50.104;14.614;2024-03-02T06:30:16;97798.24;;;12.29;39.87
75945;BME280;64628;50.104;14.614;2024-03-02T06:32:41;97800.46;;;12.24;39.80
75945;BME280;64628;50.104;14.614;2024-03-02T06:35:07;97801.63;;;12.29;39.91
75945;BME280;64628;50.104;14.614;2024-03-02T06:37:32;97800.04;;;12.75;39.57
75945;BME280;64628;50.104;14.614;2024-03-02T06:39:57;97803.63;;;12.52;39.51
75945;BME280;64628;50.104;14.614;2024-03-02T06:42:22;97802.61;;;12.53;39.48
75945;BME280;64628;50.104;14.614;2024-03-02T06:44:48;97807.48;;;12.47;39.23
75945;BME280;64628;50.104;14.614;2024-03-02T06:47:13;97814.08;;;12.33;39.57
75945;BME280;64628;50.104;14.614;2024-03-02T06:49:38;97816.61;;;12.11;39.80
75945;BME280;64628;50.104;14.614;2024-03-02T06:52:04;97814.31;;;11.97;40.20
75945;BME280;64628;50.104;14.614;2024-03-02T06:54:30;97816.26;;;12.22;39.94
75945;BME280;64628;50.104;14.614;2024-03-02T06:56:55;97816.23;;;12.50;39.58
75945;BME280;64628;50.104;14.614;2024-03-02T06:59:21;97820.41;;;12.42;38.98
75945;BME280;64628;50.104;14.614;2024-03-02T07:01:46;97824.30;;;12.37;39.54
75945;BME280;64628;50.104;14.614;2024-03-02T07:04:11;97823.65;;;12.33;39.24
75945;BME280;64628;50.104;14.614;2024-03-02T07:06:37;97823.54;;;12.37;39.13
75945;BME280;64628;50.104;14.614;2024-03-02T07:09:02;97827.54;;;11.91;39.59
75945;BME280;64628;50.104;14.614;2024-03-02T07:11:27;97831.41;;;12.18;39.25
75945;BME280;64628;50.104;14.614;2024-03-02T07:13:53;97841.77;;;12.17;39.65
75945;BME280;64628;50.104;14.614;2024-03-02T07:16:18;97843.98;;;12.14;39.89
75945;BME280;64628;50.104;14.614;2024-03-02T07:18:43;97839.91;;;12.48;39.51
75945;BME280;64628;50.104;14.614;2024-03-02T07:21:09;97842.73;;;11.76;39.86
75945;BME280;64628;50.104;14.614;2024-03-02T07:23:35;97844.11;;;12.18;39.41
75945;BME280;64628;50.104;14.614;2024-03-02T07:26:00;97846.63;;;12.44;38.92
75945;BME280;64628;50.104;14.614;2024-03-02T07:28:26;97857.83;;;12.00;38.98
75945;BME280;64628;50.104;14.614;2024-03-02T07:30:58;97856.61;;;11.97;39.36
75945;BME280;64628;50.104;14.614;2024-03-02T07:33:17;97856.24;;;12.40;39.10
75945;BME280;64628;50.104;14.614;2024-03-02T07:35:42;97859.46;;;11.93;39.20
75945;BME280;64628;50.104;14.614;2024-03-02T07:38:08;97854.13;;;12.45;39.01
75945;BME280;64628;50.104;14.614;2024-03-02T07:40:34;97848.65;;;12.85;38.52
75945;BME280;64628;50.104;14.614;2024-03-02T07:42:59;97844.50;;;12.62;37.64
75945;BME280;64628;50.104;14.614;2024-03-02T07:45:24;97841.14;;;13.11;37.00
75945;BME280;64628;50.104;14.614;2024-03-02T07:47:50;97846.12;;;13.48;36.83
75945;BME280;64628;50.104;14.614;2024-03-02T07:50:15;97841.63;;;12.90;36.87
75945;BME280;64628;50.104;14.614;2024-03-02T07:52:40;97843.27;;;13.14;36.90
75945;BME280;64628;50.104;14.614;2024-03-02T07:55:06;97843.90;;;13.36;36.91
75945;BME280;64628;50.104;14.614;2024-03-02T07:57:31;97845.78;;;12.96;36.56
75945;BME280;64628;50.104;14.614;2024-03-02T07:59:56;97842.13;;;13.10;36.55
75945;BME280;64628;50.104;14.614;2024-03-02T08:02:21;97846.93;;;13.46;36.48
75945;BME280;64628;50.104;14.614;2024-03-02T08:04:47;97849.16;;;13.37;36.10
75945;BME280;64628;50.104;14.614;2024-03-02T08:07:12;97849.50;;;13.62;36.10
75945;BME280;64628;50.104;14.614;2024-03-02T08:09:37;97854.79;;;13.21;36.19
75945;BME280;64628;50.104;14.614;2024-03-02T08:12:03;97848.40;;;13.94;35.88
75945;BME280;64628;50.104;14.614;2024-03-02T08:14:27;97849.83;;;13.89;35.16
75945;BME280;64628;50.104;14.614;2024-03-02T08:16:53;97850.56;;;14.02;34.68
75945;BME280;64628;50.104;14.614;2024-03-02T08:19:18;97849.16;;;14.68;33.92
75945;BME280;64628;50.104;14.614;2024-03-02T08:21:44;97849.98;;;15.49;32.99
75945;BME280;64628;50.104;14.614;2024-03-02T08:24:10;97856.78;;;15.24;32.16
75945;BME280;64628;50.104;14.614;2024-03-02T08:26:36;97855.26;;;15.74;31.70
75945;BME280;64628;50.104;14.614;2024-03-02T08:29:02;97856.82;;;15.49;31.73
75945;BME280;64628;50.104;14.614;2024-03-02T08:31:26;97858.07;;;15.21;31.86
75945;BME280;64628;50.104;14.614;2024-03-02T08:33:52;97857.23;;;15.82;31.62
75945;BME280;64628;50.104;14.614;2024-03-02T08:36:18;97860.08;;;16.01;31.11
75945;BME280;64628;50.104;14.614;2024-03-02T08:38:43;97862.48;;;16.30;31.00
75945;BME280;64628;50.104;14.614;2024-03-02T08:41:09;97864.19;;;15.93;31.59
75945;BME280;64628;50.104;14.614;2024-03-02T08:43:35;97868.95;;;15.71;31.80
75945;BME280;64628;50.104;14.614;2024-03-02T08:46:00;97866.65;;;15.46;31.64
75945;BME280;64628;50.104;14.614;2024-03-02T08:48:25;97870.50;;;15.10;32.66
75945;BME280;64628;50.104;14.614;2024-03-02T08:50:51;97865.78;;;14.64;33.09
75945;BME280;64628;50.104;14.614;2024-03-02T08:53:16;97866.79;;;14.59;33.37
75945;BME280;64628;50.104;14.614;2024-03-02T08:55:42;97870.71;;;15.45;32.68
75945;BME280;64628;50.104;14.614;2024-03-02T08:58:08;97874.45;;;14.55;33.12
75945;BME280;64628;50.104;14.614;2024-03-02T09:00:34;97873.69;;;15.13;32.50
75945;BME280;64628;50.104;14.614;2024-03-02T09:02:59;97872.95;;;15.14;32.79
75945;BME280;64628;50.104;14.614;2024-03-02T09:05:24;97871.01;;;15.37;31.94
75945;BME280;64628;50.104;14.614;2024-03-02T09:07:50;97872.53;;;15.80;31.60
75945;BME280;64628;50.104;14.614;2024-03-02T09:10:16;97873.52;;;15.61;31.47
75945;BME280;64628;50.104;14.614;2024-03-02T09:12:41;97869.45;;;15.38;31.77
75945;BME280;64628;50.104;14.614;2024-03-02T09:15:07;97865.47;;;15.21;32.25
75945;BME280;64628;50.104;14.614;2024-03-02T09:17:33;97870.83;;;15.27;32.07
75945;BME280;64628;50.104;14.614;2024-03-02T09:19:58;97866.52;;;15.01;32.29
75945;BME280;64628;50.104;14.614;2024-03-02T09:22:24;97869.75;;;15.05;32.16
75945;BME280;64628;50.104;14.614;2024-03-02T09:24:50;97865.19;;;15.78;31.43
75945;BME280;64628;50.104;14.614;2024-03-02T09:27:16;97862.08;;;15.58;31.24
75945;BME280;64628;50.104;14.614;2024-03-02T09:29:41;97863.68;;;15.86;31.35
75945;BME280;64628;50.104;14.614;2024-03-02T09:32:08;97867.98;;;16.06;30.73
75945;BME280;64628;50.104;14.614;2024-03-02T09:34:32;97866.60;;;17.69;29.38
75945;BME280;64628;50.104;14.614;2024-03-02T09:36:58;97867.36;;;18.38;27.33
75945;BME280;64628;50.104;14.614;2024-03-02T09:39:23;97862.90;;;19.76;25.22
75945;BME280;64628;50.104;14.614;2024-03-02T09:41:48;97867.48;;;20.14;25.20
75945;BME280;64628;50.104;14.614;2024-03-02T09:44:14;97866.55;;;21.31;23.47
75945;BME280;64628;50.104;14.614;2024-03-02T09:46:39;97863.92;;;22.78;22.03
75945;BME280;64628;50.104;14.614;2024-03-02T09:49:04;97859.81;;;25.74;19.23
75945;BME280;64628;50.104;14.614;2024-03-02T09:51:29;97855.53;;;27.16;17.71
75945;BME280;64628;50.104;14.614;2024-03-02T09:53:55;97850.58;;;26.34;17.64
75945;BME280;64628;50.104;14.614;2024-03-02T09:56:21;97850.07;;;26.31;17.83
75945;BME280;64628;50.104;14.614;2024-03-02T09:58:47;97854.21;;;27.26;16.99
75945;BME280;64628;50.104;14.614;2024-03-02T10:01:11;97853.81;;;27.85;16.60
75945;BME280;64628;50.104;14.614;2024-03-02T10:03:37;97852.99;;;28.39;16.02
75945;BME280;64628;50.104;14.614;2024-03-02T10:06:20;97851.28;;;28.43;15.97
75945;BME280;64628;50.104;14.614;2024-03-02T10:10:53;97851.95;;;29.99;14.75
75945;BME280;64628;50.104;14.614;2024-03-02T10:13:19;97849.76;;;29.58;14.53
75945;BME280;64628;50.104;14.614;2024-03-02T10:15:44;97851.46;;;29.28;14.77
75945;BME280;64628;50.104;14.614;2024-03-02T10:18:10;97853.72;;;27.55;15.53
75945;BME280;64628;50.104;14.614;2024-03-02T10:20:35;97852.79;;;26.34;17.44
75945;BME280;64628;50.104;14.614;2024-03-02T10:23:10;97857.05;;;25.74;17.88
75945;BME280;64628;50.104;14.614;2024-03-02T10:25:31;97859.15;;;25.11;18.15
75945;BME280;64628;50.104;14.614;2024-03-02T10:27:51;97862.21;;;24.93;18.52
75945;BME280;64628;50.104;14.614;2024-03-02T10:30:16;97855.23;;;23.26;20.00
75945;BME280;64628;50.104;14.614;2024-03-02T10:32:41;97856.00;;;22.80;20.78
75945;BME280;64628;50.104;14.614;2024-03-02T10:35:07;97849.66;;;21.78;21.95
75945;BME280;64628;50.104;14.614;2024-03-02T10:37:32;97845.21;;;21.02;22.66
75945;BME280;64628;50.104;14.614;2024-03-02T10:40:04;97849.80;;;20.01;23.98
75945;BME280;64628;50.104;14.614;2024-03-02T10:42:24;97844.50;;;18.58;25.59
75945;BME280;64628;50.104;14.614;2024-03-02T10:44:50;97845.55;;;18.59;26.08
75945;BME280;64628;50.104;14.614;2024-03-02T10:47:15;97844.58;;;17.78;27.21
75945;BME280;64628;50.104;14.614;2024-03-02T10:49:42;97839.14;;;17.10;28.48
75945;BME280;64628;50.104;14.614;2024-03-02T10:52:06;97838.25;;;17.19;28.63
75945;BME280;64628;50.104;14.614;2024-03-02T10:54:32;97839.16;;;17.36;28.80
75945;BME280;64628;50.104;14.614;2024-03-02T10:56:59;97836.70;;;17.74;28.38
75945;BME280;64628;50.104;14.614;2024-03-02T10:59:27;97833.07;;;18.24;27.91
75945;BME280;64628;50.104;14.614;2024-03-02T11:01:48;97826.03;;;19.22;27.03
75945;BME280;64628;50.104;14.614;2024-03-02T11:04:14;97824.68;;;19.97;26.05
75945;BME280;64628;50.104;14.614;2024-03-02T11:06:39;97824.65;;;19.48;25.03
75945;BME280;64628;50.104;14.614;2024-03-02T11:09:06;97821.41;;;19.00;25.37
75945;BME280;64628;50.104;14.614;2024-03-02T11:11:32;97816.51;;;18.77;25.68
75945;BME280;64628;50.104;14.614;2024-03-02T11:13:57;97813.89;;;19.12;25.42
75945;BME280;64628;50.104;14.614;2024-03-02T11:16:27;97811.93;;;19.47;25.46
75945;BME280;64628;50.104;14.614;2024-03-02T11:18:46;97809.74;;;18.94;25.51
75945;BME280;64628;50.104;14.614;2024-03-02T11:21:12;97805.77;;;19.88;25.47
75945;BME280;64628;50.104;14.614;2024-03-02T11:23:37;97804.97;;;20.71;24.81
75945;BME280;64628;50.104;14.614;2024-03-02T11:28:35;97801.74;;;21.48;23.75
75945;BME280;64628;50.104;14.614;2024-03-02T11:30:53;97798.81;;;21.62;22.60
75945;BME280;64628;50.104;14.614;2024-03-02T11:33:25;97794.89;;;21.33;22.75
75945;BME280;64628;50.104;14.614;2024-03-02T11:35:45;97791.14;;;20.67;23.00
75945;BME280;64628;50.104;14.614;2024-03-02T11:38:10;97789.87;;;21.14;23.36
75945;BME280;64628;50.104;14.614;2024-03-02T11:40:34;97791.05;;;21.49;24.00
75945;BME280;64628;50.104;14.614;2024-03-02T11:43:00;97791.90;;;20.54;24.06
75945;BME280;64628;50.104;14.614;2024-03-02T11:45:26;97791.34;;;19.97;24.33
75945;BME280;64628;50.104;14.614;2024-03-02T11:47:51;97790.09;;;19.76;24.71
75945;BME280;64628;50.104;14.614;2024-03-02T11:50:17;97791.87;;;19.72;24.85
75945;BME280;64628;50.104;14.614;2024-03-02T11:52:42;97786.83;;;19.96;25.28
75945;BME280;64628;50.104;14.614;2024-03-02T11:55:08;97794.27;;;19.76;25.28
75945;BME280;64628;50.104;14.614;2024-03-02T11:57:33;97798.23;;;18.67;26.23
75945;BME280;64628;50.104;14.614;2024-03-02T11:59:58;97799.69;;;18.91;26.38
75945;BME280;64628;50.104;14.614;2024-03-02T12:02:24;97799.19;;;18.60;26.78
75945;BME280;64628;50.104;14.614;2024-03-02T12:04:50;97797.82;;;18.45;27.35
75945;BME280;64628;50.104;14.614;2024-03-02T12:07:19;97801.78;;;17.72;27.61
75945;BME280;64628;50.104;14.614;2024-03-02T12:09:40;97797.30;;;17.78;27.92
75945;BME280;64628;50.104;14.614;2024-03-02T12:12:07;97796.38;;;17.79;28.23
75945;BME280;64628;50.104;14.614;2024-03-02T12:14:33;97797.82;;;17.93;28.36
75945;BME280;64628;50.104;14.614;2024-03-02T12:16:57;97797.23;;;17.95;28.34
75945;BME280;64628;50.104;14.614;2024-03-02T12:19:23;97795.45;;;17.56;28.43
75945;BME280;64628;50.104;14.614;2024-03-02T12:21:49;97798.91;;;17.44;28.38
75945;BME280;64628;50.104;14.614;2024-03-02T12:24:14;97796.31;;;17.53;28.93
75945;BME280;64628;50.104;14.614;2024-03-02T12:26:40;97794.54;;;16.68;29.26
75945;BME280;64628;50.104;14.614;2024-03-02T12:29:05;97793.32;;;16.89;29.54
75945;BME280;64628;50.104;14.614;2024-03-02T12:31:31;97799.15;;;17.25;29.26
75945;BME280;64628;50.104;14.614;2024-03-02T12:33:56;97797.30;;;17.40;29.09
75945;BME280;64628;50.104;14.614;2024-03-02T12:36:22;97797.04;;;17.28;29.46
75945;BME280;64628;50.104;14.614;2024-03-02T12:38:47;97794.58;;;17.20;29.21
75945;BME280;64628;50.104;14.614;2024-03-02T12:41:14;97796.95;;;17.38;29.02
75945;BME280;64628;50.104;14.614;2024-03-02T12:43:38;97790.14;;;17.64;28.51